Pagrindinis puslapis
METAR-TAF:

METAR-TAF

Oro uostai :

Tajuanas, Kinija

platuma: 37-47N, ilguma: 112-33E, Aukštis: 779 m

Dabartinis oras

Ataskaita buvo paskelbta 35 minutes, ne 16:00 UTC
Vėjas 8 kt iš Rytų
Temperatūra 9°C
Drėgmė 40%
Slėgis 1016 hPa
Matomumas 10 km arba daugiau
nėra debesų žemiau 1500 m ir nėra kamuolinių lietaus debesų

METAR: ZBYN 291600Z 09004MPS CAVOK 09/M04 Q1016 NOSIG

Laikas: 00:35 (16:35 UTC)

Prognozė

Ataskaita buvo paskelbta 7 valandos ir 32 minutes, ne 09:03 UTC
Prognozė galioja nuo 29 metu 12 UTC su 30 metu 12 UTC
Vėjas 8 kt iš Rytų
Matomumas: 6000 m

TAF: ZBYN 290903Z 2912/3012 09004MPS 6000 NSC TX19/3007Z TN02/2921Z

Orai ataskaitas ir orų prognozės (METAR, TAF).

turimą stotys yra geltonos ir raudonos taškus žemėlapyje.

Perkelti pele per norėdami pamatyti stoties vardą.

Tada spustelėkite, norėdami matyti oro stebėjimo ir prognozės.

Norėdami pakeisti žemėlapį: spustelėkite ant žalios mygtukų su juodo kryžiaus žemyn,; žalią mygtuką su brūkšneliu, jei norite nutolinti; arba žalių rodyklių gretimoms žemėlapius.


METAR-TAF: